createdAt,value
2019-04-22T00:01:50.287Z,97807.00
2019-04-22T00:06:12.954Z,97806.00
2019-04-22T00:10:19.423Z,97793.00
2019-04-22T00:14:17.894Z,97796.00
2019-04-22T00:18:30.469Z,97797.00
2019-04-22T00:22:36.918Z,97788.00
2019-04-22T00:26:38.040Z,97777.00
2019-04-22T00:30:34.116Z,97775.00
2019-04-22T00:34:44.492Z,97765.00
2019-04-22T00:38:44.269Z,97758.00
2019-04-22T00:42:47.732Z,97768.00
2019-04-22T00:46:52.304Z,97771.00
2019-04-22T00:55:01.886Z,97762.00
2019-04-22T00:59:04.421Z,97759.00
2019-04-22T01:03:03.031Z,97750.00
2019-04-22T01:07:06.068Z,97746.00
2019-04-22T01:11:14.820Z,97743.00
2019-04-22T01:15:17.597Z,97740.00
2019-04-22T01:19:15.063Z,97742.00
2019-04-22T01:23:19.196Z,97741.00
2019-04-22T01:27:12.948Z,97732.00
2019-04-22T01:31:04.784Z,97730.00
2019-04-22T01:35:13.344Z,97730.00
2019-04-22T01:39:35.093Z,97731.00
2019-04-22T01:43:50.320Z,97722.00
2019-04-22T01:47:41.422Z,97717.00
2019-04-22T01:51:51.764Z,97711.00
2019-04-22T01:55:43.953Z,97712.00
2019-04-22T01:59:40.406Z,97703.00
2019-04-22T02:03:54.617Z,97704.00
2019-04-22T02:07:49.314Z,97707.00
2019-04-22T02:12:02.918Z,97700.00
2019-04-22T02:15:58.687Z,97692.00
2019-04-22T02:20:05.059Z,97692.00
2019-04-22T02:24:09.057Z,97687.00
2019-04-22T02:28:18.415Z,97681.00
2019-04-22T02:32:19.432Z,97681.00
2019-04-22T02:40:25.594Z,97673.00
2019-04-22T02:44:26.450Z,97671.00
2019-04-22T02:48:53.336Z,97662.00
2019-04-22T02:52:35.406Z,97664.00
2019-04-22T02:56:31.762Z,97658.00
2019-04-22T03:00:38.028Z,97655.00
2019-04-22T03:04:37.639Z,97651.00
2019-04-22T03:08:45.968Z,97646.00
2019-04-22T03:12:49.031Z,97646.00
2019-04-22T03:16:43.185Z,97634.00
2019-04-22T03:25:24.281Z,97633.00
2019-04-22T03:28:57.011Z,97629.00
2019-04-22T03:41:16.998Z,97624.00
2019-04-22T03:45:19.291Z,97609.00
2019-04-22T04:01:29.878Z,97603.00
2019-04-22T04:05:37.627Z,97593.00
2019-04-22T04:09:44.337Z,97589.00
2019-04-22T04:13:23.116Z,97585.00
2019-04-22T04:17:36.868Z,97584.00
2019-04-22T04:25:42.513Z,97579.00
2019-04-22T04:42:05.146Z,97573.00
2019-04-22T04:45:55.476Z,97579.00
2019-04-22T04:50:03.329Z,97575.00
2019-04-22T04:54:08.049Z,97573.00
2019-04-22T05:02:09.556Z,97587.00
2019-04-22T05:14:17.720Z,97570.00
2019-04-22T05:22:14.955Z,97570.00
2019-04-22T05:26:26.066Z,97575.00
2019-04-22T05:30:26.803Z,97561.00
2019-04-22T05:34:22.833Z,97563.00
2019-04-22T05:38:27.153Z,97562.00
2019-04-22T05:42:26.386Z,97563.00
2019-04-22T05:46:30.516Z,97555.00
2019-04-22T05:50:27.052Z,97548.00
2019-04-22T05:58:46.505Z,97547.00
2019-04-22T06:02:53.491Z,97547.00
2019-04-22T06:06:46.895Z,97543.00
2019-04-22T06:10:52.059Z,97550.00
2019-04-22T06:14:54.037Z,97549.00
2019-04-22T06:19:02.737Z,97547.00
2019-04-22T06:23:04.114Z,97554.00
2019-04-22T06:27:08.024Z,97549.00
2019-04-22T06:31:10.758Z,97546.00
2019-04-22T06:35:19.811Z,97548.00
2019-04-22T06:39:14.579Z,97548.00
2019-04-22T06:43:20.090Z,97559.00
2019-04-22T06:47:26.967Z,97553.00
2019-04-22T06:51:19.858Z,97558.00
2019-04-22T06:55:33.278Z,97556.00
2019-04-22T06:59:34.420Z,97551.00
2019-04-22T07:03:45.893Z,97551.00
2019-04-22T07:07:34.042Z,97539.00
2019-04-22T07:11:33.345Z,97538.00
2019-04-22T07:23:51.401Z,97525.00
2019-04-22T07:27:47.420Z,97521.00
2019-04-22T07:31:56.226Z,97520.00
2019-04-22T07:36:18.438Z,97522.00
2019-04-22T07:39:50.135Z,97522.00
2019-04-22T07:44:13.419Z,97512.00
2019-04-22T07:48:13.056Z,97515.00
2019-04-22T07:52:05.157Z,97442.00
2019-04-22T07:56:05.465Z,97497.00
2019-04-22T08:08:20.060Z,97493.00
2019-04-22T08:12:20.251Z,97503.00
2019-04-22T08:16:26.290Z,97503.00
2019-04-22T08:20:28.960Z,97497.00
2019-04-22T08:24:29.301Z,97492.00
2019-04-22T08:28:32.000Z,97493.00
2019-04-22T08:32:34.594Z,97492.00
2019-04-22T08:36:40.819Z,97491.00
2019-04-22T08:40:56.027Z,97487.00
2019-04-22T08:48:51.585Z,97488.00
2019-04-22T08:52:52.483Z,97472.00
2019-04-22T09:00:56.896Z,97476.00
2019-04-22T09:05:10.552Z,97475.00
2019-04-22T09:13:05.894Z,97455.00
2019-04-22T09:17:13.356Z,97450.00
2019-04-22T09:21:24.018Z,97442.00
2019-04-22T09:25:08.038Z,97445.00
2019-04-22T09:29:20.852Z,97436.00
2019-04-22T09:33:21.039Z,97436.00
2019-04-22T09:37:26.877Z,97418.00
2019-04-22T09:41:27.078Z,97420.00
2019-04-22T09:45:32.404Z,97407.00
2019-04-22T09:49:44.766Z,97407.00
2019-04-22T09:53:47.017Z,97391.00
2019-04-22T09:57:38.150Z,97392.00
2019-04-22T10:01:48.800Z,97390.00
2019-04-22T10:05:52.101Z,97392.00
2019-04-22T10:14:01.176Z,97388.00
2019-04-22T10:17:57.929Z,97376.00
2019-04-22T10:21:56.896Z,97376.00
2019-04-22T10:26:04.871Z,97374.00
2019-04-22T10:30:04.225Z,97351.00
2019-04-22T10:33:56.152Z,97339.00
2019-04-22T10:37:46.090Z,97347.00
2019-04-22T10:41:48.499Z,97324.00
2019-04-22T10:45:50.272Z,97330.00
2019-04-22T10:49:52.269Z,97309.00
2019-04-22T10:53:53.495Z,97315.00
2019-04-22T10:57:54.754Z,97311.00
2019-04-22T11:01:56.153Z,97306.00
2019-04-22T11:05:57.209Z,97307.00
2019-04-22T11:10:17.558Z,97291.00
2019-04-22T11:14:01.991Z,97283.00
2019-04-22T11:18:05.251Z,97277.00
2019-04-22T11:22:16.199Z,97272.00
2019-04-22T11:26:10.141Z,97262.00
2019-04-22T11:30:13.422Z,97256.00
2019-04-22T11:34:15.390Z,97253.00
2019-04-22T11:38:17.264Z,97241.00
2019-04-22T11:42:18.605Z,97244.00
2019-04-22T11:46:21.009Z,97245.00
2019-04-22T11:50:24.209Z,97231.00
2019-04-22T11:54:25.738Z,97224.00
2019-04-22T11:58:27.044Z,97231.00
2019-04-22T12:02:31.200Z,97228.00
2019-04-22T12:06:33.626Z,97213.00
2019-04-22T12:10:42.621Z,97206.00
2019-04-22T12:14:38.257Z,97209.00
2019-04-22T12:18:39.640Z,97206.00
2019-04-22T12:22:41.073Z,97194.00
2019-04-22T12:26:42.455Z,97186.00
2019-04-22T12:31:03.870Z,97195.00
2019-04-22T12:35:07.183Z,97179.00
2019-04-22T12:39:09.688Z,97174.00
2019-04-22T12:43:12.852Z,97174.00
2019-04-22T12:47:14.903Z,97170.00
2019-04-22T12:51:16.085Z,97163.00
2019-04-22T12:55:26.085Z,97162.00
2019-04-22T12:59:27.970Z,97145.00
2019-04-22T13:03:29.399Z,97136.00
2019-04-22T13:07:31.523Z,97148.00
2019-04-22T13:11:36.334Z,97130.00
2019-04-22T13:15:36.916Z,97140.00
2019-04-22T13:19:38.467Z,97127.00
2019-04-22T13:23:39.463Z,97132.00
2019-04-22T13:27:40.542Z,97127.00
2019-04-22T13:31:42.502Z,97103.00
2019-04-22T13:35:45.620Z,97094.00
2019-04-22T13:39:47.325Z,97094.00
2019-04-22T13:43:49.328Z,97095.00
2019-04-22T13:48:11.124Z,97077.00
2019-04-22T13:52:35.680Z,97069.00
2019-04-22T13:56:20.568Z,97073.00
2019-04-22T14:00:02.231Z,97064.00
2019-04-22T14:04:06.940Z,97063.00
2019-04-22T14:08:08.768Z,97053.00
2019-04-22T14:12:13.685Z,97050.00
2019-04-22T14:16:15.143Z,97050.00
2019-04-22T14:20:18.560Z,97041.00
2019-04-22T14:24:19.842Z,97043.00
2019-04-22T14:28:22.965Z,97028.00
2019-04-22T14:32:28.001Z,97033.00
2019-04-22T14:36:27.554Z,97014.00
2019-04-22T14:40:30.281Z,96997.00
2019-04-22T14:48:56.675Z,97009.00
2019-04-22T14:52:59.444Z,96999.00
2019-04-22T14:56:40.449Z,96997.00
2019-04-22T15:00:42.365Z,96985.00
2019-04-22T15:04:43.627Z,96981.00
2019-04-22T15:08:45.144Z,96976.00
2019-04-22T15:12:49.811Z,96970.00
2019-04-22T15:16:55.047Z,96971.00
2019-04-22T15:21:00.413Z,96980.00
2019-04-22T15:25:00.993Z,96959.00
2019-04-22T15:29:03.127Z,96961.00
2019-04-22T15:33:05.508Z,96955.00
2019-04-22T15:37:06.752Z,96944.00
2019-04-22T15:41:07.785Z,96955.00
2019-04-22T15:45:09.651Z,96949.00
2019-04-22T15:49:11.892Z,96937.00
2019-04-22T15:53:13.799Z,96925.00
2019-04-22T15:57:15.087Z,96931.00
2019-04-22T16:01:23.945Z,96928.00
2019-04-22T16:05:20.288Z,96916.00
2019-04-22T16:09:22.777Z,96914.00
2019-04-22T16:13:27.329Z,96916.00
2019-04-22T16:17:26.702Z,96913.00
2019-04-22T16:21:38.219Z,96906.00
2019-04-22T16:25:47.351Z,96901.00
2019-04-22T16:29:49.742Z,96895.00
2019-04-22T16:33:52.357Z,96885.00
2019-04-22T16:37:54.955Z,96881.00
2019-04-22T16:41:56.983Z,96877.00
2019-04-22T16:45:58.279Z,96871.00
2019-04-22T16:49:59.683Z,96868.00
2019-04-22T16:54:02.169Z,96877.00
2019-04-22T16:58:05.276Z,96876.00
2019-04-22T17:02:20.590Z,96878.00
2019-04-22T17:06:23.841Z,96866.00
2019-04-22T17:10:26.096Z,96869.00
2019-04-22T17:14:38.779Z,96889.00
2019-04-22T17:18:31.020Z,96889.00
2019-04-22T17:22:33.587Z,96891.00
2019-04-22T17:26:37.050Z,96880.00
2019-04-22T17:30:39.443Z,96882.00
2019-04-22T17:34:41.365Z,96880.00
2019-04-22T17:38:52.011Z,96882.00
2019-04-22T17:43:06.739Z,96875.00
2019-04-22T17:47:27.181Z,96874.00
2019-04-22T17:51:31.423Z,96874.00
2019-04-22T17:55:41.540Z,96880.00
2019-04-22T17:59:40.909Z,96882.00
2019-04-22T18:03:29.112Z,96892.00
2019-04-22T18:07:42.940Z,96887.00
2019-04-22T18:11:50.992Z,96886.00
2019-04-22T18:15:54.890Z,96882.00
2019-04-22T18:19:52.222Z,96879.00
2019-04-22T18:23:46.885Z,96882.00
2019-04-22T18:28:10.445Z,96887.00
2019-04-22T18:31:51.160Z,96890.00
2019-04-22T18:36:06.814Z,96880.00
2019-04-22T18:40:15.056Z,96887.00
2019-04-22T18:44:19.890Z,96900.00
2019-04-22T18:48:15.339Z,96887.00
2019-04-22T18:52:28.106Z,96894.00
2019-04-22T18:56:46.643Z,96894.00
2019-04-22T19:00:36.327Z,96892.00
2019-04-22T19:04:51.758Z,96899.00
2019-04-22T19:09:10.653Z,96893.00
2019-04-22T19:13:36.391Z,96903.00
2019-04-22T19:17:29.340Z,96924.00
2019-04-22T19:21:26.007Z,96926.00
2019-04-22T19:25:11.909Z,96918.00
2019-04-22T19:29:22.402Z,96927.00
2019-04-22T19:37:24.902Z,96912.00
2019-04-22T19:41:29.205Z,96917.00
2019-04-22T19:45:34.303Z,96907.00
2019-04-22T19:49:48.367Z,96909.00
2019-04-22T19:53:40.726Z,96913.00
2019-04-22T19:57:41.964Z,96922.00
2019-04-22T20:02:00.958Z,96911.00
2019-04-22T20:06:13.057Z,96915.00
2019-04-22T20:10:16.203Z,96894.00
2019-04-22T20:14:19.941Z,96897.00
2019-04-22T20:18:41.812Z,96894.00
2019-04-22T20:22:25.317Z,96895.00
2019-04-22T20:26:17.967Z,96889.00
2019-04-22T20:30:39.861Z,96884.00
2019-04-22T20:34:40.319Z,96885.00
2019-04-22T20:38:35.435Z,96866.00
2019-04-22T20:46:42.179Z,96872.00
2019-04-22T20:50:48.092Z,96871.00
2019-04-22T20:54:44.593Z,96885.00
2019-04-22T20:58:54.702Z,96888.00
2019-04-22T21:02:46.180Z,96887.00
2019-04-22T21:06:54.295Z,96896.00
2019-04-22T21:10:51.015Z,96890.00
2019-04-22T21:15:10.776Z,96889.00
2019-04-22T21:19:04.380Z,96896.00
2019-04-22T21:23:05.708Z,96893.00
2019-04-22T21:27:18.278Z,96888.00
2019-04-22T21:31:19.324Z,96895.00
2019-04-22T21:35:31.384Z,96890.00
2019-04-22T21:39:17.706Z,96891.00
2019-04-22T21:43:24.231Z,96882.00
2019-04-22T21:47:28.734Z,96881.00
2019-04-22T21:51:31.716Z,96881.00
2019-04-22T21:55:40.058Z,96880.00
2019-04-22T21:59:37.172Z,96880.00
2019-04-22T22:03:40.102Z,96866.00
2019-04-22T22:07:26.851Z,96862.00
2019-04-22T22:11:46.228Z,96867.00
2019-04-22T22:15:47.481Z,96858.00
2019-04-22T22:19:51.951Z,96857.00
2019-04-22T22:23:59.405Z,96848.00
2019-04-22T22:27:53.377Z,96846.00
2019-04-22T22:32:05.355Z,96849.00
2019-04-22T22:36:03.573Z,96824.00
2019-04-22T22:39:54.384Z,96843.00
2019-04-22T22:43:50.965Z,96833.00
2019-04-22T22:48:14.354Z,96833.00
2019-04-22T22:52:37.893Z,96837.00
2019-04-22T22:56:17.336Z,96829.00
2019-04-22T23:00:18.434Z,96823.00
2019-04-22T23:04:29.596Z,96817.00
2019-04-22T23:08:25.667Z,96813.00
2019-04-22T23:12:39.268Z,96806.00
2019-04-22T23:16:22.092Z,96802.00
2019-04-22T23:20:18.587Z,96801.00
2019-04-22T23:24:58.459Z,96798.00
2019-04-22T23:28:57.708Z,96803.00
2019-04-22T23:33:07.800Z,96784.00
2019-04-22T23:37:21.682Z,96784.00
2019-04-22T23:41:39.438Z,96776.00
2019-04-22T23:45:40.300Z,96768.00
2019-04-22T23:49:32.074Z,96766.00
2019-04-22T23:57:48.871Z,96759.00
